sensor_id;sensor_type;location;lat;lon;timestamp;temperature;humidity
19870;DHT22;10097;50.862;4.696;2024-02-23T00:01:15;6.70;99.90
19870;DHT22;10097;50.862;4.696;2024-02-23T00:03:41;6.60;99.90
19870;DHT22;10097;50.862;4.696;2024-02-23T00:06:07;6.60;99.90
19870;DHT22;10097;50.862;4.696;2024-02-23T00:08:34;6.60;99.90
19870;DHT22;10097;50.862;4.696;2024-02-23T00:10:59;6.50;99.90
19870;DHT22;10097;50.862;4.696;2024-02-23T00:13:25;6.50;99.90
19870;DHT22;10097;50.862;4.696;2024-02-23T00:15:51;6.50;99.90
19870;DHT22;10097;50.862;4.696;2024-02-23T00:18:17;6.50;99.90
19870;DHT22;10097;50.862;4.696;2024-02-23T00:20:42;6.50;99.90
19870;DHT22;10097;50.862;4.696;2024-02-23T00:23:08;6.50;99.90
19870;DHT22;10097;50.862;4.696;2024-02-23T00:25:34;6.50;99.90
19870;DHT22;10097;50.862;4.696;2024-02-23T00:27:59;6.40;99.90
19870;DHT22;10097;50.862;4.696;2024-02-23T00:30:25;6.40;99.90
19870;DHT22;10097;50.862;4.696;2024-02-23T00:32:50;6.40;99.90
19870;DHT22;10097;50.862;4.696;2024-02-23T00:35:16;6.30;99.90
19870;DHT22;10097;50.862;4.696;2024-02-23T00:37:42;6.40;99.90
19870;DHT22;10097;50.862;4.696;2024-02-23T00:40:08;6.40;99.90
19870;DHT22;10097;50.862;4.696;2024-02-23T00:42:34;6.30;99.90
19870;DHT22;10097;50.862;4.696;2024-02-23T00:45:00;6.30;99.90
19870;DHT22;10097;50.862;4.696;2024-02-23T00:47:27;6.30;99.90
19870;DHT22;10097;50.862;4.696;2024-02-23T00:49:53;6.30;99.90
19870;DHT22;10097;50.862;4.696;2024-02-23T00:52:18;6.30;99.90
19870;DHT22;10097;50.862;4.696;2024-02-23T00:54:44;6.30;99.90
19870;DHT22;10097;50.862;4.696;2024-02-23T00:57:10;6.20;99.90
19870;DHT22;10097;50.862;4.696;2024-02-23T00:59:36;6.30;99.90
19870;DHT22;10097;50.862;4.696;2024-02-23T01:02:03;6.30;99.90
19870;DHT22;10097;50.862;4.696;2024-02-23T01:04:30;6.40;99.90
19870;DHT22;10097;50.862;4.696;2024-02-23T01:06:55;6.20;99.90
19870;DHT22;10097;50.862;4.696;2024-02-23T01:09:21;6.20;99.90
19870;DHT22;10097;50.862;4.696;2024-02-23T01:11:47;6.10;99.90
19870;DHT22;10097;50.862;4.696;2024-02-23T01:14:13;6.10;99.90
19870;DHT22;10097;50.862;4.696;2024-02-23T01:16:39;6.10;99.90
19870;DHT22;10097;50.862;4.696;2024-02-23T01:19:04;6.20;99.90
19870;DHT22;10097;50.862;4.696;2024-02-23T01:21:30;6.20;99.90
19870;DHT22;10097;50.862;4.696;2024-02-23T01:23:56;6.10;99.90
19870;DHT22;10097;50.862;4.696;2024-02-23T01:26:23;6.10;99.90
19870;DHT22;10097;50.862;4.696;2024-02-23T01:28:49;6.10;99.90
19870;DHT22;10097;50.862;4.696;2024-02-23T01:31:14;6.10;99.90
19870;DHT22;10097;50.862;4.696;2024-02-23T01:33:40;6.10;99.90
19870;DHT22;10097;50.862;4.696;2024-02-23T01:36:06;6.10;99.90
19870;DHT22;10097;50.862;4.696;2024-02-23T01:38:32;6.10;99.90
19870;DHT22;10097;50.862;4.696;2024-02-23T01:40:58;6.00;99.90
19870;DHT22;10097;50.862;4.696;2024-02-23T01:43:24;6.00;99.90
19870;DHT22;10097;50.862;4.696;2024-02-23T01:45:51;6.10;99.90
19870;DHT22;10097;50.862;4.696;2024-02-23T01:48:16;6.10;99.90
19870;DHT22;10097;50.862;4.696;2024-02-23T01:50:43;6.00;99.90
19870;DHT22;10097;50.862;4.696;2024-02-23T01:53:10;6.00;99.90
19870;DHT22;10097;50.862;4.696;2024-02-23T01:55:40;6.00;99.90
19870;DHT22;10097;50.862;4.696;2024-02-23T01:58:06;6.00;99.90
19870;DHT22;10097;50.862;4.696;2024-02-23T02:00:34;6.00;99.90
19870;DHT22;10097;50.862;4.696;2024-02-23T02:03:00;6.00;99.90
19870;DHT22;10097;50.862;4.696;2024-02-23T02:05:25;5.90;99.90
19870;DHT22;10097;50.862;4.696;2024-02-23T02:07:53;5.90;99.90
19870;DHT22;10097;50.862;4.696;2024-02-23T02:10:20;6.00;99.90
19870;DHT22;10097;50.862;4.696;2024-02-23T02:12:46;6.00;99.90
19870;DHT22;10097;50.862;4.696;2024-02-23T02:15:12;6.10;99.90
19870;DHT22;10097;50.862;4.696;2024-02-23T02:17:38;6.00;99.90
19870;DHT22;10097;50.862;4.696;2024-02-23T02:20:04;6.10;99.90
19870;DHT22;10097;50.862;4.696;2024-02-23T02:22:32;6.10;99.90
19870;DHT22;10097;50.862;4.696;2024-02-23T02:24:58;6.10;99.90
19870;DHT22;10097;50.862;4.696;2024-02-23T02:27:23;6.10;99.90
19870;DHT22;10097;50.862;4.696;2024-02-23T02:29:52;6.10;99.90
19870;DHT22;10097;50.862;4.696;2024-02-23T02:32:18;6.20;99.90
19870;DHT22;10097;50.862;4.696;2024-02-23T02:34:43;6.20;99.90
19870;DHT22;10097;50.862;4.696;2024-02-23T02:37:09;6.20;99.90
19870;DHT22;10097;50.862;4.696;2024-02-23T02:39:36;6.30;99.90
19870;DHT22;10097;50.862;4.696;2024-02-23T02:42:01;6.40;99.90
19870;DHT22;10097;50.862;4.696;2024-02-23T02:44:27;6.50;99.90
19870;DHT22;10097;50.862;4.696;2024-02-23T02:46:58;6.50;99.90
19870;DHT22;10097;50.862;4.696;2024-02-23T02:49:24;6.60;99.90
19870;DHT22;10097;50.862;4.696;2024-02-23T02:51:50;6.70;99.90
19870;DHT22;10097;50.862;4.696;2024-02-23T02:54:16;6.70;99.90
19870;DHT22;10097;50.862;4.696;2024-02-23T02:56:47;6.70;99.90
19870;DHT22;10097;50.862;4.696;2024-02-23T02:59:12;6.70;99.90
19870;DHT22;10097;50.862;4.696;2024-02-23T03:01:39;6.60;99.90
19870;DHT22;10097;50.862;4.696;2024-02-23T03:04:04;6.80;99.90
19870;DHT22;10097;50.862;4.696;2024-02-23T03:06:30;6.80;99.90
19870;DHT22;10097;50.862;4.696;2024-02-23T03:08:56;6.80;99.90
19870;DHT22;10097;50.862;4.696;2024-02-23T03:11:21;6.80;99.90
19870;DHT22;10097;50.862;4.696;2024-02-23T03:13:47;6.90;99.90
19870;DHT22;10097;50.862;4.696;2024-02-23T03:16:17;6.90;99.90
19870;DHT22;10097;50.862;4.696;2024-02-23T03:18:43;7.00;99.90
19870;DHT22;10097;50.862;4.696;2024-02-23T03:21:09;7.00;99.90
19870;DHT22;10097;50.862;4.696;2024-02-23T03:23:35;7.00;99.90
19870;DHT22;10097;50.862;4.696;2024-02-23T03:26:01;7.00;99.90
19870;DHT22;10097;50.862;4.696;2024-02-23T03:28:27;6.90;99.90
19870;DHT22;10097;50.862;4.696;2024-02-23T03:30:53;7.00;99.90
19870;DHT22;10097;50.862;4.696;2024-02-23T03:33:19;7.00;99.90
19870;DHT22;10097;50.862;4.696;2024-02-23T03:35:45;6.90;99.90
19870;DHT22;10097;50.862;4.696;2024-02-23T03:38:10;7.00;99.90
19870;DHT22;10097;50.862;4.696;2024-02-23T03:40:36;7.10;99.90
19870;DHT22;10097;50.862;4.696;2024-02-23T03:43:03;7.10;99.90
19870;DHT22;10097;50.862;4.696;2024-02-23T03:45:29;7.00;99.90
19870;DHT22;10097;50.862;4.696;2024-02-23T03:47:54;6.90;99.90
19870;DHT22;10097;50.862;4.696;2024-02-23T03:50:20;6.90;99.90
19870;DHT22;10097;50.862;4.696;2024-02-23T03:52:46;6.90;99.90
19870;DHT22;10097;50.862;4.696;2024-02-23T03:55:11;6.90;99.90
19870;DHT22;10097;50.862;4.696;2024-02-23T03:57:37;7.00;99.90
19870;DHT22;10097;50.862;4.696;2024-02-23T04:00:03;7.00;99.90
19870;DHT22;10097;50.862;4.696;2024-02-23T04:02:29;7.00;99.90
19870;DHT22;10097;50.862;4.696;2024-02-23T04:04:55;7.00;99.90
19870;DHT22;10097;50.862;4.696;2024-02-23T04:07:21;7.00;99.90
19870;DHT22;10097;50.862;4.696;2024-02-23T04:09:47;6.90;99.90
19870;DHT22;10097;50.862;4.696;2024-02-23T04:12:18;7.00;99.90
19870;DHT22;10097;50.862;4.696;2024-02-23T04:14:45;7.00;99.90
19870;DHT22;10097;50.862;4.696;2024-02-23T04:17:11;7.00;99.90
19870;DHT22;10097;50.862;4.696;2024-02-23T04:19:37;6.90;99.90
19870;DHT22;10097;50.862;4.696;2024-02-23T04:22:03;7.00;99.90
19870;DHT22;10097;50.862;4.696;2024-02-23T04:24:29;6.90;99.90
19870;DHT22;10097;50.862;4.696;2024-02-23T04:26:55;6.90;99.90
19870;DHT22;10097;50.862;4.696;2024-02-23T04:29:20;6.80;99.90
19870;DHT22;10097;50.862;4.696;2024-02-23T04:31:46;6.70;99.90
19870;DHT22;10097;50.862;4.696;2024-02-23T04:34:11;6.70;99.90
19870;DHT22;10097;50.862;4.696;2024-02-23T04:36:37;6.60;99.90
19870;DHT22;10097;50.862;4.696;2024-02-23T04:39:03;6.60;99.90
19870;DHT22;10097;50.862;4.696;2024-02-23T04:41:29;6.60;99.90
19870;DHT22;10097;50.862;4.696;2024-02-23T04:43:55;6.70;99.90
19870;DHT22;10097;50.862;4.696;2024-02-23T04:46:25;6.80;99.90
19870;DHT22;10097;50.862;4.696;2024-02-23T04:48:51;6.80;99.90
19870;DHT22;10097;50.862;4.696;2024-02-23T04:51:16;6.80;99.90
19870;DHT22;10097;50.862;4.696;2024-02-23T04:53:42;6.80;99.90
19870;DHT22;10097;50.862;4.696;2024-02-23T04:56:08;6.80;99.90
19870;DHT22;10097;50.862;4.696;2024-02-23T04:58:34;6.80;99.90
19870;DHT22;10097;50.862;4.696;2024-02-23T05:01:00;6.80;99.90
19870;DHT22;10097;50.862;4.696;2024-02-23T05:03:25;6.80;99.90
19870;DHT22;10097;50.862;4.696;2024-02-23T05:05:52;6.90;99.90
19870;DHT22;10097;50.862;4.696;2024-02-23T05:08:22;7.00;99.90
19870;DHT22;10097;50.862;4.696;2024-02-23T05:10:52;7.00;99.90
19870;DHT22;10097;50.862;4.696;2024-02-23T05:13:18;7.10;99.90
19870;DHT22;10097;50.862;4.696;2024-02-23T05:15:44;7.00;99.90
19870;DHT22;10097;50.862;4.696;2024-02-23T05:18:09;7.00;99.90
19870;DHT22;10097;50.862;4.696;2024-02-23T05:20:35;7.00;99.90
19870;DHT22;10097;50.862;4.696;2024-02-23T05:23:01;7.00;99.90
19870;DHT22;10097;50.862;4.696;2024-02-23T05:25:26;7.00;99.90
19870;DHT22;10097;50.862;4.696;2024-02-23T05:27:53;7.10;99.90
19870;DHT22;10097;50.862;4.696;2024-02-23T05:30:19;7.20;99.90
19870;DHT22;10097;50.862;4.696;2024-02-23T05:32:44;7.20;99.90
19870;DHT22;10097;50.862;4.696;2024-02-23T05:35:10;7.20;99.90
19870;DHT22;10097;50.862;4.696;2024-02-23T05:37:36;7.20;99.90
19870;DHT22;10097;50.862;4.696;2024-02-23T05:40:03;7.20;99.90
19870;DHT22;10097;50.862;4.696;2024-02-23T05:42:32;7.20;99.90
19870;DHT22;10097;50.862;4.696;2024-02-23T05:44:58;7.10;99.90
19870;DHT22;10097;50.862;4.696;2024-02-23T05:47:23;7.10;99.90
19870;DHT22;10097;50.862;4.696;2024-02-23T05:49:50;7.10;99.90
19870;DHT22;10097;50.862;4.696;2024-02-23T05:52:16;7.00;99.90
19870;DHT22;10097;50.862;4.696;2024-02-23T05:54:41;7.10;99.90
19870;DHT22;10097;50.862;4.696;2024-02-23T05:57:07;7.10;99.90
19870;DHT22;10097;50.862;4.696;2024-02-23T05:59:33;7.20;99.90
19870;DHT22;10097;50.862;4.696;2024-02-23T06:01:59;7.20;99.90
19870;DHT22;10097;50.862;4.696;2024-02-23T06:04:25;7.20;99.90
19870;DHT22;10097;50.862;4.696;2024-02-23T06:06:51;7.20;99.90
19870;DHT22;10097;50.862;4.696;2024-02-23T06:09:16;7.20;99.90
19870;DHT22;10097;50.862;4.696;2024-02-23T06:11:42;7.20;99.90
19870;DHT22;10097;50.862;4.696;2024-02-23T06:14:08;7.20;99.90
19870;DHT22;10097;50.862;4.696;2024-02-23T06:16:34;7.20;99.90
19870;DHT22;10097;50.862;4.696;2024-02-23T06:19:00;7.10;99.90
19870;DHT22;10097;50.862;4.696;2024-02-23T06:21:26;7.00;99.90
19870;DHT22;10097;50.862;4.696;2024-02-23T06:23:53;7.10;99.90
19870;DHT22;10097;50.862;4.696;2024-02-23T06:26:18;7.10;99.90
19870;DHT22;10097;50.862;4.696;2024-02-23T06:28:44;7.10;99.90
19870;DHT22;10097;50.862;4.696;2024-02-23T06:31:10;7.20;99.90
19870;DHT22;10097;50.862;4.696;2024-02-23T06:33:36;7.20;99.90
19870;DHT22;10097;50.862;4.696;2024-02-23T06:36:02;7.20;99.90
19870;DHT22;10097;50.862;4.696;2024-02-23T06:38:28;7.10;99.90
19870;DHT22;10097;50.862;4.696;2024-02-23T06:40:54;7.10;99.90
19870;DHT22;10097;50.862;4.696;2024-02-23T06:43:21;7.20;99.90
19870;DHT22;10097;50.862;4.696;2024-02-23T06:45:47;7.20;99.90
19870;DHT22;10097;50.862;4.696;2024-02-23T06:48:13;7.10;99.90
19870;DHT22;10097;50.862;4.696;2024-02-23T06:50:38;7.10;99.90
19870;DHT22;10097;50.862;4.696;2024-02-23T06:53:04;7.20;99.90
19870;DHT22;10097;50.862;4.696;2024-02-23T06:55:33;7.20;99.90
19870;DHT22;10097;50.862;4.696;2024-02-23T06:57:59;7.30;99.90
19870;DHT22;10097;50.862;4.696;2024-02-23T07:00:24;7.40;99.90
19870;DHT22;10097;50.862;4.696;2024-02-23T07:02:50;7.40;99.90
19870;DHT22;10097;50.862;4.696;2024-02-23T07:05:16;7.30;99.90
19870;DHT22;10097;50.862;4.696;2024-02-23T07:07:42;7.20;99.90
19870;DHT22;10097;50.862;4.696;2024-02-23T07:10:08;7.30;99.90
19870;DHT22;10097;50.862;4.696;2024-02-23T07:12:35;7.30;99.90
19870;DHT22;10097;50.862;4.696;2024-02-23T07:15:00;7.30;99.90
19870;DHT22;10097;50.862;4.696;2024-02-23T07:17:27;7.40;99.90
19870;DHT22;10097;50.862;4.696;2024-02-23T07:19:53;7.40;99.90
19870;DHT22;10097;50.862;4.696;2024-02-23T07:22:19;7.60;99.90
19870;DHT22;10097;50.862;4.696;2024-02-23T07:24:46;7.50;99.90
19870;DHT22;10097;50.862;4.696;2024-02-23T07:27:11;7.60;99.90
19870;DHT22;10097;50.862;4.696;2024-02-23T07:29:37;7.70;99.90
19870;DHT22;10097;50.862;4.696;2024-02-23T07:32:03;7.70;99.90
19870;DHT22;10097;50.862;4.696;2024-02-23T07:34:30;7.70;99.90
19870;DHT22;10097;50.862;4.696;2024-02-23T07:36:56;7.60;99.90
19870;DHT22;10097;50.862;4.696;2024-02-23T07:39:21;7.60;99.90
19870;DHT22;10097;50.862;4.696;2024-02-23T07:41:47;7.50;99.90
19870;DHT22;10097;50.862;4.696;2024-02-23T07:44:15;7.60;99.90
19870;DHT22;10097;50.862;4.696;2024-02-23T07:46:41;7.60;99.90
19870;DHT22;10097;50.862;4.696;2024-02-23T07:49:07;7.60;99.90
19870;DHT22;10097;50.862;4.696;2024-02-23T07:51:33;7.60;99.90
19870;DHT22;10097;50.862;4.696;2024-02-23T07:53:58;7.70;99.90
19870;DHT22;10097;50.862;4.696;2024-02-23T07:56:34;7.70;99.90
19870;DHT22;10097;50.862;4.696;2024-02-23T07:58:59;7.60;99.90
19870;DHT22;10097;50.862;4.696;2024-02-23T08:01:30;7.70;99.90
19870;DHT22;10097;50.862;4.696;2024-02-23T08:03:56;7.90;99.90
19870;DHT22;10097;50.862;4.696;2024-02-23T08:06:22;8.00;99.90
19870;DHT22;10097;50.862;4.696;2024-02-23T08:08:48;8.00;99.90
19870;DHT22;10097;50.862;4.696;2024-02-23T08:11:14;8.10;99.90
19870;DHT22;10097;50.862;4.696;2024-02-23T08:13:41;8.20;99.90
19870;DHT22;10097;50.862;4.696;2024-02-23T08:16:07;8.20;99.90
19870;DHT22;10097;50.862;4.696;2024-02-23T08:18:32;8.20;99.90
19870;DHT22;10097;50.862;4.696;2024-02-23T08:20:58;8.10;99.90
19870;DHT22;10097;50.862;4.696;2024-02-23T08:23:26;8.10;99.90
19870;DHT22;10097;50.862;4.696;2024-02-23T08:25:51;8.10;99.90
19870;DHT22;10097;50.862;4.696;2024-02-23T08:28:19;8.10;99.90
19870;DHT22;10097;50.862;4.696;2024-02-23T08:30:44;8.00;99.90
19870;DHT22;10097;50.862;4.696;2024-02-23T08:33:11;7.60;99.90
19870;DHT22;10097;50.862;4.696;2024-02-23T08:35:36;7.10;99.90
19870;DHT22;10097;50.862;4.696;2024-02-23T08:38:02;6.90;99.90
19870;DHT22;10097;50.862;4.696;2024-02-23T08:40:29;6.90;99.90
19870;DHT22;10097;50.862;4.696;2024-02-23T08:42:54;6.80;99.90
19870;DHT22;10097;50.862;4.696;2024-02-23T08:45:20;6.80;99.90
19870;DHT22;10097;50.862;4.696;2024-02-23T08:47:46;6.90;99.90
19870;DHT22;10097;50.862;4.696;2024-02-23T08:50:11;6.80;99.90
19870;DHT22;10097;50.862;4.696;2024-02-23T08:52:37;6.90;99.90
19870;DHT22;10097;50.862;4.696;2024-02-23T08:55:03;6.90;99.90
19870;DHT22;10097;50.862;4.696;2024-02-23T08:57:29;6.90;99.90
19870;DHT22;10097;50.862;4.696;2024-02-23T08:59:54;6.90;99.90
19870;DHT22;10097;50.862;4.696;2024-02-23T09:02:23;7.10;99.90
19870;DHT22;10097;50.862;4.696;2024-02-23T09:04:48;7.20;99.90
19870;DHT22;10097;50.862;4.696;2024-02-23T09:07:14;7.40;99.90
19870;DHT22;10097;50.862;4.696;2024-02-23T09:09:39;7.40;99.90
19870;DHT22;10097;50.862;4.696;2024-02-23T09:12:06;7.40;99.90
19870;DHT22;10097;50.862;4.696;2024-02-23T09:14:32;7.50;99.90
19870;DHT22;10097;50.862;4.696;2024-02-23T09:17:00;7.60;99.90
19870;DHT22;10097;50.862;4.696;2024-02-23T09:19:26;7.80;99.90
19870;DHT22;10097;50.862;4.696;2024-02-23T09:21:51;7.80;99.90
19870;DHT22;10097;50.862;4.696;2024-02-23T09:24:17;7.80;99.90
19870;DHT22;10097;50.862;4.696;2024-02-23T09:26:46;7.90;99.90
19870;DHT22;10097;50.862;4.696;2024-02-23T09:29:12;7.90;99.90
19870;DHT22;10097;50.862;4.696;2024-02-23T09:31:38;7.80;99.90
19870;DHT22;10097;50.862;4.696;2024-02-23T09:34:04;7.80;99.90
19870;DHT22;10097;50.862;4.696;2024-02-23T09:36:29;7.90;99.90
19870;DHT22;10097;50.862;4.696;2024-02-23T09:38:56;7.90;99.90
19870;DHT22;10097;50.862;4.696;2024-02-23T09:41:23;8.00;99.90
19870;DHT22;10097;50.862;4.696;2024-02-23T09:43:49;8.00;99.90
19870;DHT22;10097;50.862;4.696;2024-02-23T09:46:18;7.90;99.90
19870;DHT22;10097;50.862;4.696;2024-02-23T09:48:50;7.80;99.90
19870;DHT22;10097;50.862;4.696;2024-02-23T09:51:16;7.90;99.90
19870;DHT22;10097;50.862;4.696;2024-02-23T09:53:43;8.00;99.90
19870;DHT22;10097;50.862;4.696;2024-02-23T09:56:09;8.00;99.90
19870;DHT22;10097;50.862;4.696;2024-02-23T09:58:36;8.00;99.90
19870;DHT22;10097;50.862;4.696;2024-02-23T10:01:03;8.10;99.90
19870;DHT22;10097;50.862;4.696;2024-02-23T10:03:29;8.20;99.90
19870;DHT22;10097;50.862;4.696;2024-02-23T10:05:58;8.10;99.90
19870;DHT22;10097;50.862;4.696;2024-02-23T10:08:27;8.20;99.90
19870;DHT22;10097;50.862;4.696;2024-02-23T10:10:52;8.20;99.90
19870;DHT22;10097;50.862;4.696;2024-02-23T10:13:19;8.30;99.90
19870;DHT22;10097;50.862;4.696;2024-02-23T10:15:52;8.50;99.90
19870;DHT22;10097;50.862;4.696;2024-02-23T10:18:19;8.90;99.90
19870;DHT22;10097;50.862;4.696;2024-02-23T10:20:45;9.00;99.90
19870;DHT22;10097;50.862;4.696;2024-02-23T10:23:10;8.80;99.90
19870;DHT22;10097;50.862;4.696;2024-02-23T10:25:37;8.60;99.90
19870;DHT22;10097;50.862;4.696;2024-02-23T10:28:03;8.50;99.90
19870;DHT22;10097;50.862;4.696;2024-02-23T10:30:29;8.40;99.90
19870;DHT22;10097;50.862;4.696;2024-02-23T10:32:58;8.40;99.90
19870;DHT22;10097;50.862;4.696;2024-02-23T10:35:25;8.30;99.90
19870;DHT22;10097;50.862;4.696;2024-02-23T10:37:52;8.30;99.90
19870;DHT22;10097;50.862;4.696;2024-02-23T10:40:20;8.40;99.90
19870;DHT22;10097;50.862;4.696;2024-02-23T10:42:47;8.40;99.90
19870;DHT22;10097;50.862;4.696;2024-02-23T10:45:17;8.50;99.90
19870;DHT22;10097;50.862;4.696;2024-02-23T10:47:44;8.80;99.90
19870;DHT22;10097;50.862;4.696;2024-02-23T10:50:10;9.00;99.90
19870;DHT22;10097;50.862;4.696;2024-02-23T10:52:41;9.10;99.90
19870;DHT22;10097;50.862;4.696;2024-02-23T10:55:09;9.10;99.90
19870;DHT22;10097;50.862;4.696;2024-02-23T10:57:35;9.20;99.90
19870;DHT22;10097;50.862;4.696;2024-02-23T11:00:02;9.40;99.90
19870;DHT22;10097;50.862;4.696;2024-02-23T11:02:32;9.40;99.90
19870;DHT22;10097;50.862;4.696;2024-02-23T11:04:59;9.40;99.90
19870;DHT22;10097;50.862;4.696;2024-02-23T11:07:25;9.50;99.90
19870;DHT22;10097;50.862;4.696;2024-02-23T11:10:04;9.50;99.90
19870;DHT22;10097;50.862;4.696;2024-02-23T11:12:30;9.50;99.90
19870;DHT22;10097;50.862;4.696;2024-02-23T11:15:00;9.50;99.90
19870;DHT22;10097;50.862;4.696;2024-02-23T11:17:32;9.40;99.90
19870;DHT22;10097;50.862;4.696;2024-02-23T11:20:02;9.60;99.90
19870;DHT22;10097;50.862;4.696;2024-02-23T11:22:32;9.70;99.90
19870;DHT22;10097;50.862;4.696;2024-02-23T11:25:06;9.90;99.90
19870;DHT22;10097;50.862;4.696;2024-02-23T11:27:34;9.90;99.90
19870;DHT22;10097;50.862;4.696;2024-02-23T11:30:03;9.80;99.90
19870;DHT22;10097;50.862;4.696;2024-02-23T11:32:59;9.60;99.90
19870;DHT22;10097;50.862;4.696;2024-02-23T11:35:27;9.70;99.90
19870;DHT22;10097;50.862;4.696;2024-02-23T11:37:56;9.60;99.90
19870;DHT22;10097;50.862;4.696;2024-02-23T11:40:28;9.60;99.90
19870;DHT22;10097;50.862;4.696;2024-02-23T11:42:55;9.60;99.90
19870;DHT22;10097;50.862;4.696;2024-02-23T11:45:21;9.40;99.90
19870;DHT22;10097;50.862;4.696;2024-02-23T11:47:47;9.30;99.90
19870;DHT22;10097;50.862;4.696;2024-02-23T11:50:13;9.30;99.90
19870;DHT22;10097;50.862;4.696;2024-02-23T11:52:41;9.50;99.90
19870;DHT22;10097;50.862;4.696;2024-02-23T11:55:07;9.50;99.90
19870;DHT22;10097;50.862;4.696;2024-02-23T11:57:36;9.60;99.90
19870;DHT22;10097;50.862;4.696;2024-02-23T12:00:02;9.60;99.90
19870;DHT22;10097;50.862;4.696;2024-02-23T12:02:28;9.70;99.90
19870;DHT22;10097;50.862;4.696;2024-02-23T12:04:54;9.50;99.90
19870;DHT22;10097;50.862;4.696;2024-02-23T12:07:19;9.50;99.90
19870;DHT22;10097;50.862;4.696;2024-02-23T12:09:47;9.60;99.90
19870;DHT22;10097;50.862;4.696;2024-02-23T12:12:13;9.70;99.90
19870;DHT22;10097;50.862;4.696;2024-02-23T12:14:40;9.80;99.90
19870;DHT22;10097;50.862;4.696;2024-02-23T12:17:07;9.90;99.90
19870;DHT22;10097;50.862;4.696;2024-02-23T12:19:40;10.10;99.90
19870;DHT22;10097;50.862;4.696;2024-02-23T12:22:06;10.00;99.90
19870;DHT22;10097;50.862;4.696;2024-02-23T12:24:32;10.10;99.90
19870;DHT22;10097;50.862;4.696;2024-02-23T12:26:58;10.10;99.90
19870;DHT22;10097;50.862;4.696;2024-02-23T12:29:24;10.10;99.90
19870;DHT22;10097;50.862;4.696;2024-02-23T12:31:50;10.10;99.90
19870;DHT22;10097;50.862;4.696;2024-02-23T12:34:16;10.00;99.90
19870;DHT22;10097;50.862;4.696;2024-02-23T12:36:43;10.20;99.90
19870;DHT22;10097;50.862;4.696;2024-02-23T12:39:08;10.40;99.90
19870;DHT22;10097;50.862;4.696;2024-02-23T12:41:34;10.40;99.90
19870;DHT22;10097;50.862;4.696;2024-02-23T12:43:59;10.60;99.90
19870;DHT22;10097;50.862;4.696;2024-02-23T12:46:25;10.60;99.90
19870;DHT22;10097;50.862;4.696;2024-02-23T12:48:51;10.80;99.90
19870;DHT22;10097;50.862;4.696;2024-02-23T12:51:19;10.90;99.90
19870;DHT22;10097;50.862;4.696;2024-02-23T12:53:50;10.90;99.90
19870;DHT22;10097;50.862;4.696;2024-02-23T12:56:15;10.40;99.90
19870;DHT22;10097;50.862;4.696;2024-02-23T12:58:42;10.30;99.90
19870;DHT22;10097;50.862;4.696;2024-02-23T13:01:10;10.30;99.90
19870;DHT22;10097;50.862;4.696;2024-02-23T13:03:37;10.50;99.90
19870;DHT22;10097;50.862;4.696;2024-02-23T13:06:04;10.50;99.90
19870;DHT22;10097;50.862;4.696;2024-02-23T13:08:30;10.40;99.90
19870;DHT22;10097;50.862;4.696;2024-02-23T13:10:56;10.50;99.90
19870;DHT22;10097;50.862;4.696;2024-02-23T13:13:22;10.70;99.90
19870;DHT22;10097;50.862;4.696;2024-02-23T13:15:50;11.00;99.90
19870;DHT22;10097;50.862;4.696;2024-02-23T13:18:16;11.30;99.90
19870;DHT22;10097;50.862;4.696;2024-02-23T13:20:42;11.40;99.90
19870;DHT22;10097;50.862;4.696;2024-02-23T13:23:13;11.50;99.90
19870;DHT22;10097;50.862;4.696;2024-02-23T13:25:41;11.50;99.90
19870;DHT22;10097;50.862;4.696;2024-02-23T13:28:07;11.50;99.90
19870;DHT22;10097;50.862;4.696;2024-02-23T13:30:34;11.30;99.90
19870;DHT22;10097;50.862;4.696;2024-02-23T13:33:01;11.40;99.90
19870;DHT22;10097;50.862;4.696;2024-02-23T13:35:27;11.30;99.90
19870;DHT22;10097;50.862;4.696;2024-02-23T13:37:53;11.30;99.90
19870;DHT22;10097;50.862;4.696;2024-02-23T13:40:18;11.40;99.90
19870;DHT22;10097;50.862;4.696;2024-02-23T13:42:44;11.40;99.90
19870;DHT22;10097;50.862;4.696;2024-02-23T13:45:15;11.20;99.90
19870;DHT22;10097;50.862;4.696;2024-02-23T13:47:43;10.90;99.90
19870;DHT22;10097;50.862;4.696;2024-02-23T13:50:10;10.80;99.90
19870;DHT22;10097;50.862;4.696;2024-02-23T13:52:36;10.90;99.90
19870;DHT22;10097;50.862;4.696;2024-02-23T13:55:02;11.10;99.90
19870;DHT22;10097;50.862;4.696;2024-02-23T13:57:28;11.40;99.90
19870;DHT22;10097;50.862;4.696;2024-02-23T13:59:54;11.80;99.90
19870;DHT22;10097;50.862;4.696;2024-02-23T14:02:26;12.10;99.90
19870;DHT22;10097;50.862;4.696;2024-02-23T14:04:52;12.10;99.90
19870;DHT22;10097;50.862;4.696;2024-02-23T14:07:18;12.20;99.90
19870;DHT22;10097;50.862;4.696;2024-02-23T14:09:44;12.10;99.90
19870;DHT22;10097;50.862;4.696;2024-02-23T14:12:09;12.00;99.90
19870;DHT22;10097;50.862;4.696;2024-02-23T14:14:35;12.10;99.90
19870;DHT22;10097;50.862;4.696;2024-02-23T14:17:01;12.10;99.90
19870;DHT22;10097;50.862;4.696;2024-02-23T14:19:26;12.60;99.90
19870;DHT22;10097;50.862;4.696;2024-02-23T14:21:52;13.20;99.90
19870;DHT22;10097;50.862;4.696;2024-02-23T14:24:18;13.30;99.90
19870;DHT22;10097;50.862;4.696;2024-02-23T14:26:43;13.50;99.90
19870;DHT22;10097;50.862;4.696;2024-02-23T14:29:09;13.60;99.90
19870;DHT22;10097;50.862;4.696;2024-02-23T14:31:35;13.60;99.90
19870;DHT22;10097;50.862;4.696;2024-02-23T14:34:00;13.70;99.90
19870;DHT22;10097;50.862;4.696;2024-02-23T14:36:26;13.80;99.90
19870;DHT22;10097;50.862;4.696;2024-02-23T14:38:52;13.80;99.90
19870;DHT22;10097;50.862;4.696;2024-02-23T14:41:23;14.00;99.90
19870;DHT22;10097;50.862;4.696;2024-02-23T14:43:53;13.80;99.90
19870;DHT22;10097;50.862;4.696;2024-02-23T14:46:18;13.40;99.90
19870;DHT22;10097;50.862;4.696;2024-02-23T14:48:44;13.20;99.90
19870;DHT22;10097;50.862;4.696;2024-02-23T14:51:14;12.80;99.90
19870;DHT22;10097;50.862;4.696;2024-02-23T14:53:41;12.60;99.90
19870;DHT22;10097;50.862;4.696;2024-02-23T14:56:06;12.60;99.90
19870;DHT22;10097;50.862;4.696;2024-02-23T14:58:32;12.30;99.90
19870;DHT22;10097;50.862;4.696;2024-02-23T15:00:58;12.30;99.90
19870;DHT22;10097;50.862;4.696;2024-02-23T15:03:24;12.80;99.90
19870;DHT22;10097;50.862;4.696;2024-02-23T15:05:49;13.30;99.90
19870;DHT22;10097;50.862;4.696;2024-02-23T15:08:15;13.00;99.90
19870;DHT22;10097;50.862;4.696;2024-02-23T15:10:41;12.90;99.90
19870;DHT22;10097;50.862;4.696;2024-02-23T15:13:08;12.80;99.90
19870;DHT22;10097;50.862;4.696;2024-02-23T15:15:34;12.70;99.90
19870;DHT22;10097;50.862;4.696;2024-02-23T15:18:01;12.50;99.90
19870;DHT22;10097;50.862;4.696;2024-02-23T15:20:27;12.40;99.90
19870;DHT22;10097;50.862;4.696;2024-02-23T15:22:53;12.50;99.90
19870;DHT22;10097;50.862;4.696;2024-02-23T15:25:19;12.50;99.90
19870;DHT22;10097;50.862;4.696;2024-02-23T15:27:45;12.80;99.90
19870;DHT22;10097;50.862;4.696;2024-02-23T15:30:11;13.40;99.90
19870;DHT22;10097;50.862;4.696;2024-02-23T15:32:37;13.40;99.90
19870;DHT22;10097;50.862;4.696;2024-02-23T15:35:03;13.20;99.90
19870;DHT22;10097;50.862;4.696;2024-02-23T15:37:29;13.30;99.90